This is the latest recevied weather packets stored in our database for station/object WA1TYB-13. If no packets are shown the sender has not sent any weather packets the latest 10 day(s).
| Time | Temp. | Humidity | Pressure | Rain* | Wind** | Luminosity | Snow |
|---|---|---|---|---|---|---|---|
| 1787865859 | 30.56° C | 20% | 1015.7 hPa | 0 mm | - | 505 W/m² | - |
| 1787865554 | 30.56° C | 20% | 1015.8 hPa | 0 mm | - | 380 W/m² | - |
| 1787865249 | 30.56° C | 21% | 1016.1 hPa | 0 mm | - | 338 W/m² | - |
| 1787864945 | 31.11° C | 21% | 1016.1 hPa | 0 mm | - | 433 W/m² | - |
| 1787864640 | 30.56° C | 19% | 1016.2 hPa | 0 mm | - | 622 W/m² | - |
| 1787864334 | 31.11° C | 19% | 1016.5 hPa | 0 mm | - | 644 W/m² | - |
| 1787864028 | 31.11° C | 19% | 1016.7 hPa | 0 mm | - | 578 W/m² | - |
| 1787863727 | 31.11° C | 19% | 1016.6 hPa | 0 mm | - | 630 W/m² | - |
| 1787863426 | 31.11° C | 19% | 1016.6 hPa | 0 mm | - | 599 W/m² | - |
| 1787863122 | 30.56° C | 19% | 1016.8 hPa | 0 mm | - | 496 W/m² | - |
| 1787862818 | 30° C | 25% | 1017.1 hPa | 0 mm | - | 639 W/m² | - |
| 1787862517 | 28.33° C | 30% | 1016.8 hPa | 0 mm | - | 442 W/m² | - |
| 1787862212 | 28.33° C | 28% | 1017 hPa | 0 mm | - | 524 W/m² | - |
| 1787861907 | 27.78° C | 32% | 1017.2 hPa | 0 mm | - | 560 W/m² | - |
| 1787861607 | 26.67° C | 34% | 1017.5 hPa | 0 mm | - | 580 W/m² | - |
| 1787861305 | 26.67° C | 35% | 1017.7 hPa | 0 mm | - | 603 W/m² | - |
| 1787861001 | 26.67° C | 34% | 1017.9 hPa | 0 mm | - | 576 W/m² | - |
| 1787860700 | 26.11° C | 35% | 1017.8 hPa | 0 mm | - | 541 W/m² | - |
| 1787860395 | 26.11° C | 35% | 1017.9 hPa | 0 mm | - | 468 W/m² | - |
| 1787860089 | 25.56° C | 37% | 1018 hPa | 0 mm | - | 424 W/m² | - |
| 1787859785 | 26.11° C | 38% | 1018.1 hPa | 0 mm | - | 562 W/m² | - |
| 1787859485 | 25.56° C | 36% | 1018.2 hPa | 0 mm | - | 550 W/m² | - |
| 1787859185 | 25.56° C | 37% | 1018.2 hPa | 0 mm | - | 481 W/m² | - |
| 1787858882 | 26.67° C | 37% | 1018.1 hPa | 0 mm | - | 635 W/m² | - |
| 1787858577 | 27.22° C | 33% | 1018.1 hPa | 0 mm | - | 509 W/m² | - |
* Rain latest hour (hover to see other rain measurements)
** Current wind speed in m/s (hover to see current wind gust speed)